createdAt,value
2017-02-10T22:31:35.998Z,58.36
2017-02-10T22:32:16.699Z,58.36
2017-02-10T22:32:57.505Z,58.26
2017-02-10T22:33:38.184Z,57.59
2017-02-10T22:34:18.997Z,58.64
2017-02-10T22:34:59.878Z,58.55
2017-02-10T22:35:40.577Z,58.55
2017-02-10T22:36:21.288Z,57.88
2017-02-10T22:37:02.089Z,57.97
2017-02-10T22:37:42.870Z,58.74
2017-02-10T22:38:23.679Z,58.45
2017-02-10T22:39:04.745Z,58.36
2017-02-10T22:39:45.528Z,57.5
2017-02-10T22:40:26.776Z,56.63
2017-02-10T22:41:09.512Z,58.17
2017-02-10T22:41:50.200Z,57.65
2017-02-10T22:42:31.014Z,57.88
2017-02-10T22:43:11.822Z,56.73
2017-02-10T22:43:57.554Z,57.97
2017-02-10T22:44:38.254Z,59.41
2017-02-10T22:45:19.167Z,59.12
2017-02-10T22:46:00.047Z,57.68
2017-02-10T22:46:40.815Z,56.24
2017-02-10T22:47:21.622Z,57.78
2017-02-10T22:48:02.427Z,59.12
2017-02-10T22:48:43.231Z,59.41
2017-02-10T22:49:23.988Z,59.61
2017-02-10T22:50:04.868Z,58.07
2017-02-10T22:50:45.645Z,55.86
2017-02-10T22:51:26.425Z,55.19
2017-02-10T22:52:07.307Z,54.9
2017-02-10T22:52:48.181Z,53.75
2017-02-10T22:53:28.963Z,53.46
2017-02-10T22:54:09.706Z,53.46
2017-02-10T22:54:50.513Z,52.89
2017-02-10T22:55:31.213Z,52.5
2017-02-10T22:56:12.028Z,52.34
2017-02-10T22:56:52.833Z,52.6
2017-02-10T22:57:33.569Z,52.31
2017-02-10T22:58:14.400Z,52.43
2017-02-10T22:58:55.818Z,52.4
2017-02-10T22:59:36.732Z,52.12
2017-02-10T23:00:17.483Z,52.31
2017-02-10T23:00:58.329Z,52.6
2017-02-10T23:01:39.125Z,53.49
2017-02-10T23:02:19.907Z,53.46
2017-02-10T23:03:00.709Z,52.69
2017-02-10T23:03:41.494Z,53.08
2017-02-10T23:04:22.348Z,52.53
2017-02-10T23:05:03.161Z,52.31
2017-02-10T23:05:43.916Z,52.34
2017-02-10T23:06:24.824Z,52.24
2017-02-10T23:07:05.701Z,52.43
2017-02-10T23:07:46.455Z,52.34
2017-02-10T23:09:48.067Z,52.22
2017-02-10T23:10:28.851Z,52.53
2017-02-10T23:11:09.578Z,52.34
2017-02-10T23:11:50.417Z,52.05
2017-02-10T23:12:31.163Z,51.93
2017-02-10T23:13:11.891Z,52.14
2017-02-10T23:13:53.795Z,52.14
2017-02-10T23:14:34.522Z,52.34
2017-02-10T23:15:15.342Z,52.34
2017-02-10T23:15:56.148Z,52.14
2017-02-10T23:16:36.911Z,52.31
2017-02-10T23:17:17.707Z,52.24
2017-02-10T23:17:58.538Z,52.43
2017-02-10T23:18:39.300Z,52.4
2017-02-10T23:19:20.097Z,51.93
2017-02-10T23:20:00.899Z,51.95
2017-02-10T23:20:41.699Z,52.14
2017-02-10T23:21:22.465Z,52.14
2017-02-10T23:22:03.286Z,52.14
2017-02-10T23:22:44.880Z,52.24
2017-02-10T23:23:24.844Z,52.24
2017-02-10T23:24:06.392Z,52.53
2017-02-10T23:24:46.474Z,52.14
2017-02-10T23:25:27.260Z,52.05
2017-02-10T23:26:08.038Z,51.95
2017-02-10T23:26:48.868Z,51.95
2017-02-10T23:27:29.652Z,51.86
2017-02-10T23:28:11.089Z,51.76
2017-02-10T23:28:52.816Z,51.67
2017-02-10T23:29:34.329Z,52.24
2017-02-10T23:30:15.171Z,52.05
2017-02-10T23:30:56.152Z,51.86
2017-02-10T23:31:37.007Z,52.14
2017-02-10T23:32:17.850Z,52.12
2017-02-10T23:32:58.675Z,52.05
2017-02-10T23:33:39.481Z,52.05
2017-02-10T23:34:20.185Z,52.24
2017-02-10T23:35:00.979Z,52.14
2017-02-10T23:35:41.845Z,52.14
2017-02-10T23:36:22.590Z,52.31
2017-02-10T23:37:03.374Z,52.24
2017-02-10T23:37:44.125Z,52.14
2017-02-10T23:38:24.888Z,52.34
2017-02-10T23:39:05.727Z,52.34
2017-02-10T23:39:46.565Z,51.95
2017-02-10T23:40:27.426Z,52.02
2017-02-10T23:41:08.224Z,53.11
2017-02-10T23:41:49.144Z,52.62
2017-02-10T23:42:29.955Z,52.14
2017-02-10T23:43:10.750Z,52.43
2017-02-10T23:43:51.532Z,54.74
2017-02-10T23:44:32.286Z,53.58
2017-02-10T23:45:13.047Z,52.91
2017-02-10T23:45:53.891Z,54.83
2017-02-10T23:46:34.738Z,55.6
2017-02-10T23:47:15.783Z,55.41
2017-02-10T23:47:56.720Z,53.74
2017-02-10T23:48:37.486Z,51.35
2017-02-10T23:49:18.244Z,50.15
2017-02-10T23:49:58.980Z,48.35
2017-02-10T23:50:40.355Z,47.41
2017-02-10T23:51:20.720Z,46.37
2017-02-10T23:52:01.536Z,45.34
2017-02-10T23:52:42.861Z,44.39
2017-02-10T23:53:23.099Z,43.74
2017-02-10T23:54:04.720Z,43.16
2017-02-10T23:54:45.554Z,42.7
2017-02-10T23:55:26.320Z,42.12
2017-02-10T23:56:07.200Z,42.21
2017-02-10T23:56:48.021Z,41.66
2017-02-10T23:57:28.911Z,41.75
2017-02-10T23:58:09.679Z,41.46
2017-02-10T23:58:50.473Z,41.19
2017-02-10T23:59:31.273Z,40.81
